Time;durP1;ratioP1;P1;durP2;ratioP2;P2;SDS_P1;SDS_P2;PMS_P1;PMS_P2;Temp;Humidity;BMP_temperature;BMP_pressure;BME280_temperature;BME280_humidity;BME280_pressure;Samples;Min_cycle;Max_cycle;Signal;HPM_P1;HPM_P2
2023/06/01 00:01:20;;;;;;;14.35;6.50;;;;;;;;;;5098920;28;20427;-74
2023/06/01 00:03:47;;;;;;;13.75;6.15;;;;;;;;;;5110676;28;21006;-74
2023/06/01 00:06:13;;;;;;;16.50;6.80;;;;;;;;;;5085800;28;20468;-74
2023/06/01 00:08:39;;;;;;;15.20;7.15;;;;;;;;;;5095394;28;20416;-74
2023/06/01 00:11:05;;;;;;;17.65;6.90;;;;;;;;;;5103407;28;20487;-74
2023/06/01 00:13:31;;;;;;;13.57;6.60;;;;;;;;;;5091257;28;20410;-75
2023/06/01 00:15:57;;;;;;;13.95;7.15;;;;;;;;;;5082650;28;20418;-75
2023/06/01 00:18:27;;;;;;;16.40;6.90;;;;;;;;;;5098823;28;20414;-75
2023/06/01 00:20:53;;;;;;;14.27;7.03;;;12.10;99.90;;;;;;5074311;28;20425;-75
2023/06/01 00:23:19;;;;;;;21.90;7.20;;;;;;;;;;5091246;28;20422;-74
2023/06/01 00:25:46;;;;;;;15.20;7.00;;;;;;;;;;5075613;28;20417;-74
2023/06/01 00:28:12;;;;;;;17.15;7.07;;;;;;;;;;5102403;28;20431;-74
2023/06/01 00:30:38;;;;;;;13.88;6.82;;;;;;;;;;5074512;28;20402;-74
2023/06/01 00:33:03;;;;;;;13.55;6.40;;;12.00;99.90;;;;;;5092218;28;20421;-74
2023/06/01 00:35:29;;;;;;;12.10;5.93;;;;;;;;;;5108914;28;20505;-74
2023/06/01 00:37:56;;;;;;;14.07;6.57;;;;;;;;;;5092025;28;20483;-74
2023/06/01 00:40:23;;;;;;;14.48;6.63;;;;;;;;;;5103790;28;20416;-75
2023/06/01 00:42:49;;;;;;;14.68;6.55;;;;;;;;;;5105286;28;20421;-75
2023/06/01 00:45:14;;;;;;;14.80;6.30;;;11.70;99.90;;;;;;5087253;28;20775;-74
2023/06/01 00:47:42;;;;;;;12.70;6.47;;;;;;;;;;5092873;28;20422;-74
2023/06/01 00:50:09;;;;;;;13.90;6.20;;;12.00;99.90;;;;;;5093056;28;20753;-74
2023/06/01 00:52:37;;;;;;;16.83;6.63;;;12.00;99.90;;;;;;5100518;28;20423;-74
2023/06/01 00:55:03;;;;;;;14.73;6.03;;;;;;;;;;5094123;28;20876;-74
2023/06/01 00:57:30;;;;;;;15.00;6.30;;;;;;;;;;5077986;28;20416;-75
2023/06/01 00:59:57;;;;;;;12.65;6.03;;;11.80;99.90;;;;;;5095716;28;20416;-74
2023/06/01 01:02:23;;;;;;;15.35;6.03;;;;;;;;;;5089119;28;20428;-75
2023/06/01 01:04:52;;;;;;;16.30;6.47;;;;;;;;;;5084405;28;20428;-74
2023/06/01 01:07:29;;;;;;;14.68;6.57;;;;;;;;;;5098664;28;20498;-74
2023/06/01 01:09:55;;;;;;;14.90;6.72;;;;;;;;;;5101459;28;20428;-74
2023/06/01 01:12:35;;;;;;;16.38;6.88;;;11.80;99.90;;;;;;5095013;28;20724;-75
2023/06/01 01:15:13;;;;;;;14.63;6.93;;;;;;;;;;5094719;28;20409;-74
2023/06/01 01:17:42;;;;;;;13.75;6.70;;;;;;;;;;5079617;28;20433;-74
2023/06/01 01:20:37;;;;;;;13.73;7.03;;;11.90;99.90;;;;;;5095127;28;20499;-75
2023/06/01 01:23:05;;;;;;;15.23;7.15;;;;;;;;;;5100277;28;20985;-74
2023/06/01 01:25:40;;;;;;;14.93;6.82;;;11.60;99.90;;;;;;5095582;28;20450;-74
2023/06/01 01:28:07;;;;;;;15.00;6.78;;;;;;;;;;5098135;28;20814;-74
2023/06/01 01:30:37;;;;;;;15.65;7.28;;;11.70;99.90;;;;;;5094543;28;20408;-74
2023/06/01 01:33:03;;;;;;;15.93;7.18;;;11.60;99.90;;;;;;5085499;28;20452;-74
2023/06/01 01:35:30;;;;;;;16.80;6.82;;;;;;;;;;5103474;28;20487;-74
2023/06/01 01:37:56;;;;;;;18.02;6.95;;;;;;;;;;5106737;28;20433;-74
2023/06/01 01:40:21;;;;;;;13.90;6.07;;;11.70;99.90;;;;;;5081945;28;20416;-74
2023/06/01 01:42:50;;;;;;;18.50;6.87;;;11.60;99.90;;;;;;5079835;28;20515;-74
2023/06/01 01:45:16;;;;;;;13.07;6.40;;;;;;;;;;5078545;28;20508;-74
2023/06/01 01:47:42;;;;;;;16.00;6.63;;;;;;;;;;5102126;28;20421;-74
2023/06/01 01:50:11;;;;;;;13.65;6.15;;;11.60;99.90;;;;;;5093463;28;20412;-74
2023/06/01 01:52:39;;;;;;;12.55;6.70;;;11.70;99.90;;;;;;5096904;28;20417;-75
2023/06/01 01:55:07;;;;;;;13.27;6.25;;;;;;;;;;5095200;28;20489;-74
2023/06/01 01:57:34;;;;;;;19.27;6.35;;;;;;;;;;5078370;28;20421;-74
2023/06/01 02:00:00;;;;;;;16.40;6.67;;;;;;;;;;5110194;28;20850;-74
2023/06/01 02:02:26;;;;;;;16.08;6.53;;;;;;;;;;5076467;28;20505;-74
2023/06/01 02:04:52;;;;;;;14.68;6.45;;;;;;;;;;5075816;28;20412;-74
2023/06/01 02:07:18;;;;;;;13.20;6.70;;;;;;;;;;5105944;28;20473;-74
2023/06/01 02:09:44;;;;;;;14.10;6.88;;;;;;;;;;5099063;27;20416;-74
2023/06/01 02:12:11;;;;;;;15.73;6.20;;;;;;;;;;5089080;27;20419;-74
2023/06/01 02:14:37;;;;;;;13.57;6.07;;;;;;;;;;5095308;27;20788;-75
2023/06/01 02:17:03;;;;;;;13.95;6.95;;;;;;;;;;5111215;27;20420;-75
2023/06/01 02:19:29;;;;;;;15.00;6.60;;;;;;;;;;5095739;28;20416;-74
2023/06/01 02:21:55;;;;;;;11.05;5.65;;;;;;;;;;5097197;28;20400;-74
2023/06/01 02:24:21;;;;;;;14.07;5.68;;;;;;;;;;5103455;28;20420;-74
2023/06/01 02:26:51;;;;;;;10.48;5.35;;;;;;;;;;5100977;27;20414;-74
2023/06/01 02:29:19;;;;;;;11.68;5.18;;;;;;;;;;5105345;28;20478;-74
2023/06/01 02:31:45;;;;;;;11.95;5.30;;;;;;;;;;5099333;27;20418;-74
2023/06/01 02:34:12;;;;;;;12.93;5.30;;;;;;;;;;5117580;27;20412;-75
2023/06/01 02:36:38;;;;;;;14.00;5.75;;;;;;;;;;5080006;28;20965;-74
2023/06/01 02:39:04;;;;;;;10.95;4.72;;;;;;;;;;5103841;28;20983;-74
2023/06/01 02:41:29;;;;;;;9.32;4.63;;;11.20;99.90;;;;;;5097005;28;20803;-74
2023/06/01 02:43:56;;;;;;;7.63;4.00;;;;;;;;;;5097140;27;20442;-74
2023/06/01 02:46:22;;;;;;;11.43;4.22;;;;;;;;;;5076426;27;20426;-74
2023/06/01 02:48:48;;;;;;;10.45;3.90;;;;;;;;;;5091335;27;20481;-74
2023/06/01 02:51:14;;;;;;;8.77;3.70;;;;;;;;;;5105460;27;20487;-74
2023/06/01 02:53:43;;;;;;;13.50;3.88;;;;;;;;;;5114999;27;20426;-74
2023/06/01 02:56:09;;;;;;;11.13;4.20;;;;;;;;;;5098998;27;20543;-74
2023/06/01 02:58:35;;;;;;;10.07;4.18;;;;;;;;;;5106814;27;20446;-74
2023/06/01 03:01:01;;;;;;;9.75;3.90;;;;;;;;;;5096686;28;20430;-74
2023/06/01 03:03:27;;;;;;;12.30;4.13;;;;;;;;;;5083084;27;20425;-73
2023/06/01 03:05:55;;;;;;;10.50;4.25;;;;;;;;;;5079985;28;20419;-74
2023/06/01 03:08:21;;;;;;;9.47;4.13;;;;;;;;;;5106139;27;20410;-74
2023/06/01 03:10:47;;;;;;;9.57;3.90;;;;;;;;;;5104916;27;20459;-74
2023/06/01 03:13:13;;;;;;;11.20;4.68;;;;;;;;;;5126916;27;20420;-73
2023/06/01 03:15:40;;;;;;;9.48;4.82;;;;;;;;;;5096797;27;20487;-73
2023/06/01 03:18:06;;;;;;;10.60;5.32;;;11.60;99.90;;;;;;5111163;27;20763;-74
2023/06/01 03:20:33;;;;;;;11.15;5.40;;;;;;;;;;5100445;28;20444;-73
2023/06/01 03:22:59;;;;;;;11.27;4.95;;;;;;;;;;5095230;28;20404;-74
2023/06/01 03:25:26;;;;;;;11.52;5.05;;;;;;;;;;5096858;27;20438;-73
2023/06/01 03:27:52;;;;;;;12.52;5.53;;;;;;;;;;5099023;27;20424;-73
2023/06/01 03:30:18;;;;;;;11.40;4.93;;;;;;;;;;5100120;27;20450;-73
2023/06/01 03:32:45;;;;;;;10.50;4.70;;;11.50;99.90;;;;;;5095898;28;20416;-74
2023/06/01 03:35:12;;;;;;;9.32;4.50;;;;;;;;;;5096989;28;20451;-74
2023/06/01 03:37:40;;;;;;;8.20;4.10;;;11.70;99.90;;;;;;5095166;28;20427;-74
2023/06/01 03:40:10;;;;;;;10.02;4.03;;;;;;;;;;5092874;27;20443;-74
2023/06/01 03:42:43;;;;;;;8.82;4.47;;;11.30;99.90;;;;;;5078253;28;20503;-74
2023/06/01 03:45:10;;;;;;;9.80;4.68;;;;;;;;;;5048162;27;20419;-74
2023/06/01 03:47:36;;;;;;;9.38;4.03;;;11.50;99.90;;;;;;5086335;28;20461;-74
2023/06/01 03:50:03;;;;;;;11.88;4.68;;;;;;;;;;5089159;27;20457;-73
2023/06/01 03:52:29;;;;;;;9.77;4.70;;;11.50;99.90;;;;;;5106318;27;20406;-74
2023/06/01 03:54:56;;;;;;;10.27;4.85;;;;;;;;;;5092584;27;20412;-73
2023/06/01 03:57:22;;;;;;;10.48;4.40;;;;;;;;;;5095903;28;20419;-74
2023/06/01 03:59:48;;;;;;;10.35;4.55;;;;;;;;;;5091073;27;20415;-74
2023/06/01 04:02:14;;;;;;;10.43;4.50;;;;;;;;;;5110610;27;20449;-74
2023/06/01 04:04:40;;;;;;;9.20;4.57;;;;;;;;;;5110910;27;20440;-74
2023/06/01 04:07:09;;;;;;;9.48;4.22;;;11.70;99.90;;;;;;5102070;27;20421;-74
2023/06/01 04:09:37;;;;;;;10.18;4.80;;;;;;;;;;5096330;28;20783;-74
2023/06/01 04:12:04;;;;;;;13.02;4.60;;;;;;;;;;5104255;27;20467;-73
2023/06/01 04:14:30;;;;;;;9.98;4.53;;;;;;;;;;5078234;28;20929;-73
2023/06/01 04:16:56;;;;;;;10.43;4.53;;;11.50;99.90;;;;;;5100345;28;20927;-74
2023/06/01 04:19:22;;;;;;;15.17;5.13;;;;;;;;;;5105130;27;20433;-74
2023/06/01 04:21:47;;;;;;;11.25;4.80;;;11.90;99.90;;;;;;5103339;27;20489;-74
2023/06/01 04:24:13;;;;;;;12.50;5.03;;;;;;;;;;5098243;27;20877;-74
2023/06/01 04:26:40;;;;;;;14.32;5.50;;;;;;;;;;5105542;27;20426;-74
2023/06/01 04:29:06;;;;;;;9.90;4.60;;;;;;;;;;5114875;27;20410;-75
2023/06/01 04:31:34;;;;;;;10.63;4.97;;;;;;;;;;5106934;27;20415;-74
2023/06/01 04:34:01;;;;;;;10.05;4.43;;;;;;;;;;5092766;28;20447;-75
2023/06/01 04:36:28;;;;;;;10.73;4.50;;;;;;;;;;5088113;27;20824;-75
2023/06/01 04:38:54;;;;;;;10.52;4.97;;;;;;;;;;5097481;28;20498;-75
2023/06/01 04:41:21;;;;;;;8.57;4.53;;;;;;;;;;5081705;27;20426;-75
2023/06/01 04:43:58;;;;;;;8.40;4.43;;;;;;;;;;5094118;27;20473;-75
2023/06/01 04:46:25;;;;;;;10.10;4.57;;;;;;;;;;5099653;28;20432;-75
2023/06/01 04:48:51;;;;;;;10.50;4.60;;;;;;;;;;5094637;28;20416;-74
2023/06/01 04:51:21;;;;;;;11.82;4.65;;;;;;;;;;5080708;28;20427;-75
2023/06/01 04:53:49;;;;;;;11.63;4.88;;;11.60;99.90;;;;;;5081915;28;20408;-75
2023/06/01 04:56:19;;;;;;;12.02;4.90;;;11.80;99.90;;;;;;5094684;28;20419;-75
2023/06/01 04:58:48;;;;;;;11.93;4.90;;;;;;;;;;5084873;28;20490;-75
2023/06/01 05:01:15;;;;;;;13.18;4.60;;;;;;;;;;5086087;28;20431;-75
2023/06/01 05:03:45;;;;;;;10.55;5.00;;;11.60;99.90;;;;;;5080696;28;20771;-75
2023/06/01 05:06:12;;;;;;;12.50;5.45;;;;;;;;;;5078555;28;20555;-75
2023/06/01 05:08:41;;;;;;;8.40;4.70;;;;;;;;;;5109966;27;20411;-75
2023/06/01 05:11:08;;;;;;;14.90;5.18;;;;;;;;;;5095039;28;20751;-75
2023/06/01 05:13:38;;;;;;;10.57;5.40;;;11.80;99.90;;;;;;5109075;28;20485;-75
2023/06/01 05:16:05;;;;;;;10.00;5.15;;;12.00;99.90;;;;;;5074920;28;20536;-75
2023/06/01 05:18:32;;;;;;;12.68;5.32;;;11.90;99.90;;;;;;5100320;28;20903;-76
2023/06/01 05:20:58;;;;;;;11.63;5.10;;;;;;;;;;5095715;28;20498;-75
2023/06/01 05:23:25;;;;;;;11.57;5.00;;;;;;;;;;5104624;28;20812;-75
2023/06/01 05:25:52;;;;;;;10.68;4.75;;;;;;;;;;5102779;28;20759;-75
2023/06/01 05:28:19;;;;;;;9.60;4.88;;;;;;;;;;5100739;28;20419;-76
2023/06/01 05:30:45;;;;;;;8.95;4.40;;;;;;;;;;5080802;28;20432;-76
2023/06/01 05:33:11;;;;;;;9.50;4.60;;;;;;;;;;5093665;28;20816;-76
2023/06/01 05:35:37;;;;;;;13.80;4.90;;;;;;;;;;5078439;28;20523;-75
2023/06/01 05:38:03;;;;;;;12.48;4.88;;;;;;;;;;5101541;28;20936;-75
2023/06/01 05:40:29;;;;;;;12.60;4.35;;;;;;;;;;5087110;28;20425;-74
2023/06/01 05:42:55;;;;;;;10.50;4.30;;;;;;;;;;5095497;28;20423;-74
2023/06/01 05:45:21;;;;;;;9.80;4.47;;;;;;;;;;5097098;28;20807;-75
2023/06/01 05:47:47;;;;;;;14.32;5.55;;;;;;;;;;5083388;27;20472;-75
2023/06/01 05:50:13;;;;;;;11.18;5.00;;;;;;;;;;5080751;27;20948;-75
2023/06/01 05:52:42;;;;;;;11.02;5.15;;;;;;;;;;5100309;27;20913;-74
2023/06/01 05:55:09;;;;;;;13.55;4.75;;;;;;;;;;5107499;27;20407;-76
2023/06/01 05:57:34;;;;;;;10.60;4.43;;;12.00;99.90;;;;;;5084469;28;20416;-76
2023/06/01 06:00:00;;;;;;;10.00;4.00;;;;;;;;;;5090047;27;20406;-76
2023/06/01 06:02:26;;;;;;;10.60;4.57;;;;;;;;;;5073430;27;20413;-75
2023/06/01 06:04:52;;;;;;;11.80;5.10;;;;;;;;;;5091687;27;20465;-75
2023/06/01 06:07:18;;;;;;;11.45;5.10;;;;;;;;;;5083759;27;20498;-75
2023/06/01 06:09:44;;;;;;;10.55;5.20;;;;;;;;;;5094597;27;20426;-75
2023/06/01 06:12:11;;;;;;;10.63;4.18;;;;;;;;;;5111753;27;20427;-75
2023/06/01 06:14:37;;;;;;;8.52;3.80;;;;;;;;;;5098357;28;20408;-76
2023/06/01 06:17:03;;;;;;;11.52;3.45;;;;;;;;;;5098246;27;20433;-76
2023/06/01 06:19:29;;;;;;;10.23;3.60;;;;;;;;;;5085678;27;20744;-76
2023/06/01 06:21:55;;;;;;;10.25;3.58;;;;;;;;;;5107008;28;20412;-76
2023/06/01 06:24:21;;;;;;;10.20;4.15;;;;;;;;;;5097877;28;20423;-76
2023/06/01 06:26:47;;;;;;;9.07;4.33;;;;;;;;;;5085735;28;20427;-75
2023/06/01 06:29:13;;;;;;;9.32;4.10;;;;;;;;;;5101296;27;20418;-76
2023/06/01 06:31:39;;;;;;;8.18;3.83;;;;;;;;;;5089628;27;20554;-76
2023/06/01 06:34:05;;;;;;;9.55;3.42;;;;;;;;;;5090241;28;20416;-76
2023/06/01 06:36:31;;;;;;;9.25;3.55;;;12.50;99.90;;;;;;5082420;27;20411;-76
2023/06/01 06:38:57;;;;;;;9.10;3.27;;;;;;;;;;5097764;28;20416;-75
2023/06/01 06:41:24;;;;;;;10.23;3.50;;;;;;;;;;5106921;27;20459;-75
2023/06/01 06:43:50;;;;;;;8.77;3.58;;;;;;;;;;5078164;28;20446;-75
2023/06/01 06:46:16;;;;;;;10.98;3.60;;;;;;;;;;5084075;27;20424;-75
2023/06/01 06:48:42;;;;;;;8.67;3.17;;;;;;;;;;5118115;27;20456;-75
2023/06/01 06:51:08;;;;;;;8.60;3.38;;;;;;;;;;5100780;27;20917;-75
2023/06/01 06:53:34;;;;;;;7.82;3.45;;;;;;;;;;5110406;27;20447;-75
2023/06/01 06:59:09;;;;;;;12.85;3.35;;;;;;;;;;5094379;27;20775;-75
2023/06/01 07:01:37;;;;;;;8.90;3.10;;;;;;;;;;5109959;27;20419;-75
2023/06/01 07:04:05;;;;;;;7.93;2.70;;;;;;;;;;5101146;27;20410;-75
2023/06/01 07:06:32;;;;;;;6.97;2.88;;;;;;;;;;5113960;27;20422;-75
2023/06/01 07:08:58;;;;;;;8.18;3.45;;;;;;;;;;5101939;27;20423;-75
2023/06/01 07:11:26;;;;;;;7.77;3.20;;;;;;;;;;5075288;28;20448;-75
2023/06/01 07:13:53;;;;;;;7.10;2.90;;;12.50;99.90;;;;;;5096015;27;20418;-74
2023/06/01 07:16:19;;;;;;;8.07;2.70;;;;;;;;;;5088099;28;20429;-75
2023/06/01 07:18:45;;;;;;;10.35;3.00;;;;;;;;;;5099609;27;20419;-75
2023/06/01 07:21:11;;;;;;;9.05;2.90;;;;;;;;;;5114104;27;20402;-75
2023/06/01 07:23:37;;;;;;;8.15;3.35;;;;;;;;;;5104688;27;20425;-74
2023/06/01 07:26:03;;;;;;;9.25;3.67;;;;;;;;;;5080632;28;20420;-75
2023/06/01 07:28:30;;;;;;;7.45;3.15;;;;;;;;;;5083109;27;20434;-75
2023/06/01 07:30:56;;;;;;;7.50;3.20;;;;;;;;;;5100878;28;20444;-75
2023/06/01 07:33:22;;;;;;;5.60;2.80;;;;;;;;;;5080051;28;20492;-76
2023/06/01 07:35:52;;;;;;;5.40;2.58;;;;;;;;;;5081128;27;20453;-74
2023/06/01 07:38:19;;;;;;;5.13;2.23;;;;;;;;;;5101435;28;20420;-74
2023/06/01 07:40:45;;;;;;;7.15;2.30;;;;;;;;;;5102183;27;20426;-75
2023/06/01 07:43:11;;;;;;;5.10;2.10;;;12.80;99.90;;;;;;5079868;28;20420;-75
2023/06/01 07:45:37;;;;;;;6.85;2.38;;;;;;;;;;5083476;27;20483;-75
2023/06/01 07:48:03;;;;;;;6.40;2.38;;;;;;;;;;5105529;27;20929;-75
2023/06/01 07:50:30;;;;;;;7.40;2.13;;;12.70;99.90;;;;;;5103298;27;20443;-75
2023/06/01 07:52:57;;;;;;;6.25;2.30;;;;;;;;;;5078703;27;20416;-76
2023/06/01 07:55:23;;;;;;;5.30;2.30;;;;;;;;;;5080997;27;20428;-76
2023/06/01 07:57:50;;;;;;;4.53;1.95;;;;;;;;;;5078801;27;20422;-76
2023/06/01 08:00:17;;;;;;;6.93;2.10;;;;;;;;;;5106608;27;20463;-76
2023/06/01 08:02:46;;;;;;;4.22;1.90;;;;;;;;;;5099031;28;20824;-76
2023/06/01 08:05:12;;;;;;;4.55;1.65;;;12.70;99.90;;;;;;5101056;27;20420;-77
2023/06/01 08:07:38;;;;;;;5.10;1.92;;;13.00;99.90;;;;;;5083066;27;20422;-76
2023/06/01 08:10:08;;;;;;;4.70;1.60;;;;;;;;;;5105810;27;20416;-76
2023/06/01 08:12:35;;;;;;;4.63;1.97;;;13.00;99.90;;;;;;5100449;27;20425;-76
2023/06/01 08:15:03;;;;;;;6.63;2.30;;;;;;;;;;5079580;27;20419;-76
2023/06/01 08:17:29;;;;;;;5.03;1.92;;;;;;;;;;5085279;27;20412;-76
2023/06/01 08:19:56;;;;;;;4.22;1.90;;;;;;;;;;5082192;27;20588;-76
2023/06/01 08:22:23;;;;;;;4.50;1.90;;;13.10;99.90;;;;;;5090340;28;20416;-77
2023/06/01 08:24:51;;;;;;;5.65;2.03;;;;;;;;;;5082092;28;20432;-76
2023/06/01 08:27:18;;;;;;;4.83;1.60;;;12.50;99.90;;;;;;5096561;27;20460;-75
2023/06/01 08:29:48;;;;;;;4.45;1.85;;;;;;;;;;5092691;27;20424;-75
2023/06/01 08:32:15;;;;;;;4.55;1.95;;;;;;;;;;5099667;27;20511;-76
2023/06/01 08:34:41;;;;;;;5.18;2.42;;;;;;;;;;5081630;27;20412;-75
2023/06/01 08:37:07;;;;;;;6.00;2.70;;;;;;;;;;5099269;27;20497;-74
2023/06/01 08:39:33;;;;;;;7.70;2.97;;;;;;;;;;5102632;27;20418;-75
2023/06/01 08:41:59;;;;;;;8.05;2.78;;;;;;;;;;5088721;27;20479;-76
2023/06/01 08:44:28;;;;;;;7.05;2.63;;;12.70;99.90;;;;;;5085129;28;20418;-75
2023/06/01 08:46:55;;;;;;;6.88;3.28;;;12.90;99.90;;;;;;5110722;28;20513;-75
2023/06/01 08:49:21;;;;;;;7.95;3.30;;;12.80;99.90;;;;;;5100833;27;20518;-76
2023/06/01 08:51:51;;;;;;;8.53;3.27;;;12.80;99.90;;;;;;5075032;28;20408;-76
2023/06/01 08:54:17;;;;;;;9.18;3.38;;;;;;;;;;5085757;28;20841;-75
2023/06/01 08:56:43;;;;;;;6.57;3.30;;;;;;;;;;5105965;28;20420;-76
2023/06/01 08:59:13;;;;;;;9.55;3.88;;;12.60;99.90;;;;;;5097213;28;20911;-75
2023/06/01 09:01:39;;;;;;;12.45;4.10;;;;;;;;;;5079458;28;20429;-75
2023/06/01 09:04:05;;;;;;;12.07;3.50;;;;;;;;;;5097395;28;20430;-76
2023/06/01 09:06:33;;;;;;;11.52;3.78;;;;;;;;;;5088073;28;20770;-75
2023/06/01 09:08:59;;;;;;;10.73;3.77;;;;;;;;;;5094395;28;20449;-75
2023/06/01 09:11:26;;;;;;;10.13;3.60;;;;;;;;;;5082121;28;20428;-75
2023/06/01 09:13:52;;;;;;;9.60;3.53;;;;;;;;;;5104919;28;20497;-75
2023/06/01 09:16:19;;;;;;;10.32;4.22;;;;;;;;;;5106165;28;20532;-75
2023/06/01 09:18:55;;;;;;;10.68;3.63;;;;;;;;;;5099907;28;20427;-76
2023/06/01 09:21:21;;;;;;;11.57;3.80;;;;;;;;;;5095625;27;20414;-75
2023/06/01 09:23:47;;;;;;;11.48;3.60;;;;;;;;;;5107174;27;20418;-75
2023/06/01 09:26:14;;;;;;;10.52;3.92;;;;;;;;;;5087121;28;20775;-75
2023/06/01 09:28:55;;;;;;;12.65;3.58;;;;;;;;;;5079887;27;20416;-75
2023/06/01 09:31:41;;;;;;;8.93;3.40;;;13.10;99.90;;;;;;5099998;28;20965;-75
2023/06/01 09:34:18;;;;;;;11.93;3.65;;;12.90;99.90;;;;;;5086879;28;20427;-76
2023/06/01 09:36:48;;;;;;;11.90;4.20;;;;;;;;;;5097576;27;20603;-76
2023/06/01 09:39:15;;;;;;;13.82;3.83;;;;;;;;;;5108946;27;20966;-77
2023/06/01 09:41:52;;;;;;;12.43;4.05;;;;;;;;;;5103053;27;20416;-77
2023/06/01 09:44:27;;;;;;;10.07;3.67;;;;;;;;;;5105299;27;20422;-77
2023/06/01 09:47:02;;;;;;;12.15;3.78;;;13.10;99.90;;;;;;5110292;27;20419;-76
2023/06/01 09:49:31;;;;;;;13.00;4.10;;;;;;;;;;5097385;27;20446;-76
2023/06/01 09:52:07;;;;;;;12.73;3.58;;;;;;;;;;5102370;27;20485;-76
2023/06/01 09:54:32;;;;;;;11.10;3.55;;;13.10;99.90;;;;;;5105634;27;20465;-76
2023/06/01 09:56:59;;;;;;;8.88;3.17;;;;;;;;;;5105085;27;20414;-77
2023/06/01 09:59:28;;;;;;;9.93;3.45;;;13.20;99.90;;;;;;5085231;27;20442;-77
2023/06/01 10:01:58;;;;;;;10.63;3.25;;;13.20;99.90;;;;;;5102875;27;20454;-76
2023/06/01 10:04:27;;;;;;;7.93;2.80;;;;;;;;;;5101977;27;20420;-77
2023/06/01 10:06:56;;;;;;;10.63;3.47;;;13.40;99.90;;;;;;5105289;27;20414;-76
2023/06/01 10:09:24;;;;;;;9.47;3.30;;;;;;;;;;5106566;27;20429;-75
2023/06/01 10:11:53;;;;;;;11.20;3.28;;;;;;;;;;5106255;27;20514;-75
2023/06/01 10:14:19;;;;;;;13.07;3.53;;;;;;;;;;5093532;27;20417;-76
2023/06/01 10:16:45;;;;;;;10.40;3.10;;;;;;;;;;5084471;28;20424;-75
2023/06/01 10:19:12;;;;;;;11.20;2.90;;;;;;;;;;5081457;28;20416;-75
2023/06/01 10:21:39;;;;;;;10.75;3.00;;;;;;;;;;5106084;27;20448;-76
2023/06/01 10:24:07;;;;;;;9.77;3.30;;;;;;;;;;5098695;27;20412;-76
2023/06/01 10:27:02;;;;;;;11.55;3.15;;;;;;;;;;5115615;27;20402;-76
2023/06/01 10:29:30;;;;;;;12.10;3.70;;;13.50;99.90;;;;;;5084898;27;20459;-76
2023/06/01 10:31:57;;;;;;;12.40;3.33;;;;;;;;;;5107251;27;20426;-76
2023/06/01 10:34:44;;;;;;;11.05;3.25;;;13.40;99.90;;;;;;5104420;27;20427;-76
2023/06/01 10:37:11;;;;;;;11.02;3.55;;;13.50;99.90;;;;;;5102311;27;20914;-76
2023/06/01 10:39:37;;;;;;;8.98;3.25;;;;;;;;;;5086550;28;20408;-74
2023/06/01 10:42:12;;;;;;;9.90;3.13;;;13.60;99.90;;;;;;5088763;27;20741;-75
2023/06/01 10:44:40;;;;;;;11.48;3.28;;;13.60;99.90;;;;;;5089235;28;20440;-75
2023/06/01 10:47:07;;;;;;;12.10;3.30;;;;;;;;;;5087469;27;20804;-76
2023/06/01 10:49:49;;;;;;;8.98;3.10;;;;;;;;;;5089399;28;20477;-75
2023/06/01 10:52:28;;;;;;;8.52;2.88;;;;;;;;;;5096172;27;20499;-76
2023/06/01 10:54:54;;;;;;;9.40;3.10;;;;;;;;;;5108573;27;20525;-76
2023/06/01 10:57:22;;;;;;;11.02;3.13;;;13.60;99.90;;;;;;5104592;27;20415;-75
2023/06/01 11:00:08;;;;;;;10.88;3.15;;;;;;;;;;5102284;27;20433;-76
2023/06/01 11:02:33;;;;;;;9.63;3.05;;;13.80;99.90;;;;;;5101901;27;20424;-76
2023/06/01 11:05:18;;;;;;;9.10;2.75;;;;;;;;;;5106241;27;20938;-75
2023/06/01 11:07:44;;;;;;;12.02;3.38;;;;;;;;;;5103930;27;20418;-74
2023/06/01 11:10:11;;;;;;;9.93;3.08;;;;;;;;;;5085735;27;20499;-75
2023/06/01 11:12:55;;;;;;;7.83;2.87;;;;;;;;;;5101870;28;20503;-76
2023/06/01 11:15:21;;;;;;;8.43;2.90;;;;;;;;;;5094985;27;20483;-75
2023/06/01 11:17:47;;;;;;;9.18;3.00;;;;;;;;;;5100074;27;20796;-76
2023/06/01 11:20:14;;;;;;;11.13;3.33;;;;;;;;;;5086243;27;20423;-75
2023/06/01 11:22:39;;;;;;;9.77;3.10;;;14.10;99.90;;;;;;5081694;28;20426;-76
2023/06/01 11:25:07;;;;;;;9.48;3.10;;;14.00;99.90;;;;;;5065097;27;20411;-75
2023/06/01 11:27:34;;;;;;;9.13;3.50;;;14.00;99.90;;;;;;5095603;28;20416;-75
2023/06/01 11:29:59;;;;;;;10.13;3.72;;;14.10;99.90;;;;;;5104321;27;20467;-76
2023/06/01 11:32:27;;;;;;;10.97;3.77;;;14.00;99.90;;;;;;5102061;27;20416;-75
2023/06/01 11:34:55;;;;;;;8.45;3.70;;;;;;;;;;5104933;28;20500;-76
2023/06/01 11:37:21;;;;;;;10.15;3.42;;;;;;;;;;5097125;27;20791;-75
2023/06/01 11:39:48;;;;;;;8.80;3.40;;;13.90;99.90;;;;;;5083661;27;20779;-75
2023/06/01 11:42:15;;;;;;;6.13;3.28;;;;;;;;;;5071701;27;20420;-75
2023/06/01 11:44:42;;;;;;;8.35;3.65;;;;;;;;;;5085115;27;20410;-76
2023/06/01 11:47:09;;;;;;;9.70;3.15;;;13.70;99.90;;;;;;5098664;27;20421;-76
2023/06/01 11:49:44;;;;;;;7.50;3.30;;;;;;;;;;5068139;27;21008;-76
2023/06/01 11:52:10;;;;;;;7.53;3.17;;;;;;;;;;5097321;27;20423;-76
2023/06/01 11:54:37;;;;;;;6.63;3.00;;;;;;;;;;5081324;27;20766;-76
2023/06/01 11:57:05;;;;;;;9.70;3.80;;;;;;;;;;5104923;27;20436;-76
2023/06/01 11:59:44;;;;;;;9.02;3.08;;;13.90;99.90;;;;;;5094772;28;20416;-75
2023/06/01 12:02:27;;;;;;;8.27;3.17;;;14.00;99.90;;;;;;5083845;28;20422;-76
2023/06/01 12:04:57;;;;;;;10.05;3.25;;;;;;;;;;5094147;27;20450;-77
2023/06/01 12:07:24;;;;;;;9.25;3.33;;;;;;;;;;5106765;27;20408;-75
2023/06/01 12:09:53;;;;;;;8.20;3.10;;;14.20;99.90;;;;;;5086506;27;20459;-75
2023/06/01 12:12:20;;;;;;;10.77;3.30;;;;;;;;;;5105361;27;20882;-75
2023/06/01 12:14:46;;;;;;;9.15;3.30;;;;;;;;;;5080978;27;20416;-75
2023/06/01 12:17:13;;;;;;;10.03;3.67;;;;;;;;;;5074725;27;20481;-75
2023/06/01 12:19:47;;;;;;;11.47;3.63;;;;;;;;;;5084005;27;20467;-75
2023/06/01 12:22:13;;;;;;;12.85;4.00;;;;;;;;;;5109381;27;20429;-74
2023/06/01 12:24:39;;;;;;;8.57;3.57;;;;;;;;;;5109149;27;20410;-74
2023/06/01 12:27:14;;;;;;;10.23;3.88;;;;;;;;;;5100307;27;20427;-75
2023/06/01 12:29:41;;;;;;;10.13;3.42;;;14.00;99.90;;;;;;5096619;28;20977;-74
2023/06/01 12:32:08;;;;;;;12.00;3.92;;;;;;;;;;5084818;28;20416;-76
2023/06/01 12:34:36;;;;;;;8.48;3.60;;;14.00;99.90;;;;;;5094622;27;20447;-75
2023/06/01 12:37:12;;;;;;;11.18;3.88;;;;;;;;;;5087116;27;20427;-75
2023/06/01 12:39:39;;;;;;;8.95;3.90;;;;;;;;;;5093292;28;20503;-75
2023/06/01 12:42:06;;;;;;;10.32;3.85;;;;;;;;;;5097859;28;20422;-76
2023/06/01 12:44:36;;;;;;;10.02;3.85;;;;;;;;;;5076808;27;20419;-75
2023/06/01 12:47:03;;;;;;;13.65;4.35;;;;;;;;;;5099649;28;20473;-75
2023/06/01 12:49:29;;;;;;;9.13;3.70;;;13.70;99.90;;;;;;5074706;28;21003;-75
2023/06/01 12:51:56;;;;;;;12.05;4.07;;;;;;;;;;5095613;28;20938;-76
2023/06/01 12:54:22;;;;;;;9.52;4.03;;;;;;;;;;5105373;28;20497;-76
2023/06/01 12:56:48;;;;;;;9.40;4.07;;;;;;;;;;5097993;28;20427;-75
2023/06/01 12:59:14;;;;;;;13.53;4.70;;;13.80;99.90;;;;;;5075125;28;20444;-76
2023/06/01 13:01:40;;;;;;;10.65;3.90;;;;;;;;;;5097510;28;20498;-76
2023/06/01 13:04:08;;;;;;;9.35;3.40;;;;;;;;;;5076557;28;20895;-75
2023/06/01 13:06:39;;;;;;;10.60;3.63;;;;;;;;;;5093278;28;20423;-74
2023/06/01 13:09:06;;;;;;;11.90;3.80;;;;;;;;;;5093120;28;20951;-76
2023/06/01 13:11:33;;;;;;;8.52;3.50;;;;;;;;;;5099187;28;20437;-76
2023/06/01 13:13:58;;;;;;;10.23;3.42;;;13.70;99.90;;;;;;5091980;28;20477;-74
2023/06/01 13:16:24;;;;;;;8.25;3.20;;;;;;;;;;5093601;28;20412;-75
2023/06/01 13:18:51;;;;;;;11.25;3.45;;;;;;;;;;5093121;27;20416;-75
2023/06/01 13:21:19;;;;;;;8.45;3.50;;;;;;;;;;5092993;28;20907;-74
2023/06/01 13:23:45;;;;;;;10.82;3.65;;;;;;;;;;5076120;28;20498;-74
2023/06/01 13:26:12;;;;;;;7.28;3.22;;;13.70;99.90;;;;;;5101704;27;20422;-75
2023/06/01 13:28:38;;;;;;;14.70;3.50;;;;;;;;;;5083114;28;20452;-76
2023/06/01 13:31:04;;;;;;;9.30;3.17;;;;;;;;;;5095273;28;20419;-75
2023/06/01 13:33:32;;;;;;;11.77;4.13;;;;;;;;;;5084510;28;20453;-75
2023/06/01 13:35:58;;;;;;;12.40;3.67;;;;;;;;;;5078708;27;20424;-75
2023/06/01 13:38:24;;;;;;;11.80;4.13;;;;;;;;;;5077987;28;20447;-76
2023/06/01 13:40:51;;;;;;;12.80;4.27;;;;;;;;;;5080035;27;20481;-75
2023/06/01 13:43:18;;;;;;;11.48;4.40;;;;;;;;;;5105056;28;20424;-76
2023/06/01 13:45:44;;;;;;;8.95;3.72;;;;;;;;;;5075692;28;20429;-75
2023/06/01 13:48:10;;;;;;;9.85;3.88;;;;;;;;;;5100619;28;20478;-75
2023/06/01 13:50:37;;;;;;;18.40;4.27;;;;;;;;;;5097791;28;20749;-74
2023/06/01 13:53:05;;;;;;;8.05;3.45;;;;;;;;;;5075846;28;20406;-77
2023/06/01 13:55:31;;;;;;;7.60;3.67;;;;;;;;;;5103500;28;20415;-75
2023/06/01 13:57:57;;;;;;;8.85;3.38;;;;;;;;;;5076210;28;20417;-75
2023/06/01 14:00:23;;;;;;;8.73;3.28;;;;;;;;;;5075888;28;20408;-76
2023/06/01 14:02:49;;;;;;;6.73;3.00;;;13.80;99.90;;;;;;5101385;28;20482;-76
2023/06/01 14:05:15;;;;;;;6.93;2.87;;;;;;;;;;5074330;28;20811;-76
2023/06/01 14:07:41;;;;;;;8.05;3.00;;;;;;;;;;5079301;27;20501;-76
2023/06/01 14:10:07;;;;;;;6.78;3.10;;;14.20;99.90;;;;;;5100151;27;20476;-75
2023/06/01 14:12:33;;;;;;;8.43;3.40;;;;;;;;;;5100974;27;20422;-74